createdAt,value
2023-01-21T00:01:07.342Z,9.10
2023-01-21T00:03:34.499Z,9.05
2023-01-21T00:06:02.202Z,8.77
2023-01-21T00:08:29.242Z,9.57
2023-01-21T00:10:56.407Z,8.85
2023-01-21T00:13:23.611Z,9.38
2023-01-21T00:15:50.560Z,8.73
2023-01-21T00:18:17.485Z,9.18
2023-01-21T00:20:46.114Z,8.43
2023-01-21T00:23:13.100Z,7.97
2023-01-21T00:25:39.987Z,8.82
2023-01-21T00:28:06.930Z,9.68
2023-01-21T00:30:33.946Z,9.25
2023-01-21T00:33:00.833Z,9.73
2023-01-21T00:35:27.603Z,9.48
2023-01-21T00:37:54.557Z,9.90
2023-01-21T00:40:22.595Z,9.63
2023-01-21T00:42:49.420Z,8.95
2023-01-21T00:45:16.572Z,10.00
2023-01-21T00:47:43.535Z,9.20
2023-01-21T00:50:11.354Z,8.70
2023-01-21T00:52:38.922Z,9.13
2023-01-21T00:55:06.611Z,9.98
2023-01-21T00:57:33.716Z,9.80
2023-01-21T01:00:00.757Z,9.88
2023-01-21T01:02:27.681Z,9.68
2023-01-21T01:04:54.549Z,9.55
2023-01-21T01:07:21.395Z,9.77
2023-01-21T01:09:48.194Z,10.65
2023-01-21T01:12:15.025Z,10.98
2023-01-21T01:14:41.863Z,9.55
2023-01-21T01:17:09.380Z,10.23
2023-01-21T01:19:36.217Z,10.38
2023-01-21T01:22:03.090Z,9.77
2023-01-21T01:24:31.124Z,10.00
2023-01-21T01:26:58.585Z,10.05
2023-01-21T01:29:25.861Z,10.30
2023-01-21T01:31:52.669Z,10.55
2023-01-21T01:34:19.557Z,10.90
2023-01-21T01:36:46.467Z,10.68
2023-01-21T01:39:13.276Z,9.88
2023-01-21T01:41:40.107Z,10.07
2023-01-21T01:44:54.409Z,10.85
2023-01-21T01:47:23.074Z,10.10
2023-01-21T01:49:49.957Z,10.32
2023-01-21T01:52:19.976Z,9.93
2023-01-21T01:54:53.275Z,10.45
2023-01-21T01:57:25.398Z,10.85
2023-01-21T01:59:52.381Z,9.95
2023-01-21T02:02:20.403Z,11.00
2023-01-21T02:05:04.833Z,10.55
2023-01-21T02:07:39.452Z,9.50
2023-01-21T02:10:15.051Z,11.52
2023-01-21T02:12:44.469Z,11.00
2023-01-21T02:15:12.264Z,10.52
2023-01-21T02:18:14.390Z,10.77
2023-01-21T02:21:21.083Z,10.60
2023-01-21T02:24:28.757Z,9.70
2023-01-21T02:27:30.759Z,10.05
2023-01-21T02:30:09.740Z,10.35
2023-01-21T02:33:09.098Z,9.15
2023-01-21T02:35:54.416Z,10.13
2023-01-21T02:38:45.667Z,10.15
2023-01-21T02:41:30.778Z,10.63
2023-01-21T02:43:57.514Z,8.88
2023-01-21T02:47:04.585Z,11.13
2023-01-21T02:49:42.202Z,9.77
2023-01-21T02:52:17.389Z,10.68
2023-01-21T02:54:57.243Z,10.80
2023-01-21T02:57:39.957Z,11.33
2023-01-21T03:00:23.297Z,9.77
2023-01-21T03:03:41.396Z,10.57
2023-01-21T03:06:56.012Z,10.63
2023-01-21T03:09:34.891Z,10.20
2023-01-21T03:12:16.936Z,10.10
2023-01-21T03:15:07.438Z,9.25
2023-01-21T03:17:59.623Z,9.55
2023-01-21T03:20:36.947Z,10.90
2023-01-21T03:23:10.451Z,10.25
2023-01-21T03:25:40.232Z,10.32
2023-01-21T03:28:13.754Z,10.23
2023-01-21T03:30:50.883Z,10.18
2023-01-21T03:33:21.992Z,9.90
2023-01-21T03:35:53.593Z,10.70
2023-01-21T03:38:32.517Z,11.35
2023-01-21T03:41:13.724Z,10.50
2023-01-21T03:43:40.756Z,10.65
2023-01-21T03:46:19.924Z,11.07
2023-01-21T03:48:55.350Z,10.90
2023-01-21T03:51:31.482Z,9.52
2023-01-21T03:53:59.797Z,9.88
2023-01-21T03:56:27.902Z,9.75
2023-01-21T03:58:55.047Z,11.23
2023-01-21T04:01:22.347Z,11.13
2023-01-21T04:03:49.424Z,11.05
2023-01-21T04:06:20.695Z,12.65
2023-01-21T04:08:48.526Z,11.52
2023-01-21T04:11:16.408Z,10.82
2023-01-21T04:13:43.522Z,9.90
2023-01-21T04:16:10.512Z,12.32
2023-01-21T04:18:37.523Z,9.40
2023-01-21T04:21:04.458Z,9.80
2023-01-21T04:23:31.283Z,9.75
2023-01-21T04:25:58.215Z,10.32
2023-01-21T04:28:25.187Z,10.95
2023-01-21T04:30:52.089Z,9.27
2023-01-21T04:33:18.923Z,10.98
2023-01-21T04:35:45.773Z,10.63
2023-01-21T04:38:13.056Z,9.27
2023-01-21T04:40:39.840Z,10.02
2023-01-21T04:43:06.721Z,9.60
2023-01-21T04:45:33.720Z,10.25
2023-01-21T04:48:00.550Z,9.77
2023-01-21T04:50:27.379Z,9.65
2023-01-21T04:52:54.251Z,10.00
2023-01-21T04:55:21.173Z,10.00
2023-01-21T04:57:48.028Z,9.13
2023-01-21T05:00:16.202Z,10.05
2023-01-21T05:02:43.238Z,9.35
2023-01-21T05:05:10.292Z,9.57
2023-01-21T05:07:37.217Z,10.57
2023-01-21T05:10:04.571Z,9.98
2023-01-21T05:12:31.444Z,9.60
2023-01-21T05:14:58.345Z,9.80
2023-01-21T05:17:25.775Z,10.00
2023-01-21T05:19:52.861Z,10.52
2023-01-21T05:22:19.721Z,9.73
2023-01-21T05:24:46.610Z,9.55
2023-01-21T05:27:13.482Z,9.50
2023-01-21T05:29:40.539Z,10.15
2023-01-21T05:32:07.497Z,9.13
2023-01-21T05:34:34.326Z,9.82
2023-01-21T05:37:01.182Z,10.63
2023-01-21T05:39:27.947Z,10.85
2023-01-21T05:41:54.768Z,9.45
2023-01-21T05:44:21.599Z,10.73
2023-01-21T05:46:48.425Z,11.13
2023-01-21T05:49:15.280Z,10.45
2023-01-21T05:51:42.078Z,10.10
2023-01-21T05:54:08.908Z,11.05
2023-01-21T05:56:35.852Z,11.00
2023-01-21T05:59:02.877Z,10.40
2023-01-21T06:01:29.711Z,10.13
2023-01-21T06:03:56.632Z,9.10
2023-01-21T06:06:23.483Z,8.70
2023-01-21T06:08:50.265Z,9.43
2023-01-21T06:11:17.096Z,10.55
2023-01-21T06:13:44.090Z,9.98
2023-01-21T06:16:11.002Z,10.43
2023-01-21T06:18:37.919Z,9.55
2023-01-21T06:21:05.014Z,10.63
2023-01-21T06:23:31.813Z,10.43
2023-01-21T06:26:02.593Z,9.90
2023-01-21T06:30:57.027Z,8.32
2023-01-21T06:33:24.140Z,9.70
2023-01-21T06:35:50.968Z,9.52
2023-01-21T06:38:17.830Z,10.40
2023-01-21T06:40:44.730Z,10.13
2023-01-21T06:43:11.612Z,9.77
2023-01-21T06:45:38.465Z,10.25
2023-01-21T06:48:05.547Z,10.48
2023-01-21T06:50:32.357Z,10.00
2023-01-21T06:52:59.167Z,10.57
2023-01-21T06:55:26.031Z,10.50
2023-01-21T06:57:52.869Z,10.10
2023-01-21T07:00:20.422Z,9.27
2023-01-21T07:02:47.370Z,9.52
2023-01-21T07:05:15.445Z,10.25
2023-01-21T07:07:42.468Z,10.73
2023-01-21T07:10:10.339Z,10.05
2023-01-21T07:12:37.134Z,9.98
2023-01-21T07:15:04.706Z,9.73
2023-01-21T07:17:31.627Z,9.15
2023-01-21T07:19:58.526Z,9.75
2023-01-21T07:22:25.360Z,9.48
2023-01-21T07:24:52.150Z,9.00
2023-01-21T07:27:18.974Z,9.02
2023-01-21T07:29:45.840Z,9.70
2023-01-21T07:32:12.648Z,9.10
2023-01-21T07:34:39.408Z,9.57
2023-01-21T07:37:06.288Z,9.05
2023-01-21T07:39:33.149Z,8.68
2023-01-21T07:41:59.941Z,9.40
2023-01-21T07:44:27.100Z,9.45
2023-01-21T07:46:53.994Z,8.93
2023-01-21T07:49:20.781Z,9.57
2023-01-21T07:51:48.830Z,9.68
2023-01-21T07:54:15.987Z,9.38
2023-01-21T07:56:42.969Z,10.10
2023-01-21T07:59:11.600Z,9.93
2023-01-21T08:01:38.464Z,9.65
2023-01-21T08:04:07.069Z,9.25
2023-01-21T08:06:33.981Z,10.27
2023-01-21T08:09:00.916Z,10.15
2023-01-21T08:11:27.745Z,9.80
2023-01-21T08:13:54.576Z,10.18
2023-01-21T08:16:21.622Z,10.02
2023-01-21T08:18:48.477Z,10.20
2023-01-21T08:21:15.344Z,10.02
2023-01-21T08:23:42.216Z,10.30
2023-01-21T08:26:09.117Z,10.85
2023-01-21T08:28:36.039Z,9.95
2023-01-21T08:31:10.001Z,9.30
2023-01-21T08:33:37.486Z,9.48
2023-01-21T08:36:07.313Z,10.88
2023-01-21T08:38:35.206Z,10.63
2023-01-21T08:41:02.020Z,9.57
2023-01-21T08:43:28.924Z,9.82
2023-01-21T08:45:58.455Z,9.48
2023-01-21T08:48:25.486Z,9.80
2023-01-21T08:50:52.411Z,10.35
2023-01-21T08:53:19.767Z,10.02
2023-01-21T08:55:46.597Z,10.23
2023-01-21T08:58:13.444Z,9.85
2023-01-21T09:00:41.854Z,10.80
2023-01-21T09:03:08.784Z,10.80
2023-01-21T09:05:35.754Z,10.38
2023-01-21T09:08:02.686Z,10.35
2023-01-21T09:10:47.944Z,9.43
2023-01-21T09:13:16.325Z,10.32
2023-01-21T09:15:44.021Z,10.70
2023-01-21T09:18:11.241Z,11.25
2023-01-21T09:20:39.738Z,9.77
2023-01-21T09:23:24.405Z,11.90
2023-01-21T09:26:06.173Z,9.95
2023-01-21T09:28:38.640Z,10.48
2023-01-21T09:31:10.198Z,10.48
2023-01-21T09:33:39.713Z,10.00
2023-01-21T09:36:12.367Z,10.27
2023-01-21T09:38:42.863Z,10.90
2023-01-21T09:41:30.382Z,10.52
2023-01-21T09:44:21.188Z,9.57
2023-01-21T09:47:06.033Z,9.65
2023-01-21T09:49:51.257Z,11.07
2023-01-21T09:52:38.844Z,9.43
2023-01-21T09:55:15.517Z,9.88
2023-01-21T09:58:37.862Z,11.25
2023-01-21T10:01:43.024Z,10.73
2023-01-21T10:04:40.538Z,10.82
2023-01-21T10:07:17.597Z,8.93
2023-01-21T10:10:32.304Z,10.02
2023-01-21T10:13:20.124Z,10.38
2023-01-21T10:16:24.474Z,11.10
2023-01-21T10:18:54.908Z,10.68
2023-01-21T10:21:36.933Z,10.77
2023-01-21T10:24:25.586Z,10.13
2023-01-21T10:26:54.073Z,9.88
2023-01-21T10:29:26.036Z,10.55
2023-01-21T10:32:03.918Z,10.93
2023-01-21T10:34:35.536Z,11.38
2023-01-21T10:37:18.401Z,10.00
2023-01-21T10:40:40.147Z,9.70
2023-01-21T10:43:51.251Z,9.25
2023-01-21T10:46:30.301Z,10.05
2023-01-21T10:49:50.461Z,10.60
2023-01-21T10:52:45.151Z,10.47
2023-01-21T10:55:39.390Z,9.57
2023-01-21T10:58:25.407Z,9.25
2023-01-21T11:00:56.493Z,9.13
2023-01-21T11:03:41.159Z,10.35
2023-01-21T11:06:13.331Z,10.02
2023-01-21T11:08:44.262Z,9.57
2023-01-21T11:11:13.040Z,9.55
2023-01-21T11:13:41.299Z,8.57
2023-01-21T11:16:08.666Z,8.68
2023-01-21T11:18:40.281Z,9.48
2023-01-21T11:21:22.286Z,8.88
2023-01-21T11:24:23.601Z,9.48
2023-01-21T11:27:01.919Z,9.15
2023-01-21T11:29:41.107Z,8.75
2023-01-21T11:32:27.402Z,8.77
2023-01-21T11:35:15.559Z,9.43
2023-01-21T11:37:45.788Z,8.65
2023-01-21T11:40:25.879Z,9.32
2023-01-21T11:42:56.227Z,8.63
2023-01-21T11:45:36.323Z,9.07
2023-01-21T11:48:20.275Z,8.30
2023-01-21T11:50:47.385Z,8.38
2023-01-21T11:53:19.455Z,8.93
2023-01-21T11:55:51.635Z,9.15
2023-01-21T11:58:35.889Z,8.13
2023-01-21T12:01:10.674Z,8.52
2023-01-21T12:03:47.637Z,8.95
2023-01-21T12:06:26.222Z,8.38
2023-01-21T12:09:01.095Z,9.20
2023-01-21T12:11:30.935Z,7.97
2023-01-21T12:14:17.439Z,9.67
2023-01-21T12:17:14.790Z,8.07
2023-01-21T12:20:06.950Z,7.88
2023-01-21T12:23:00.976Z,7.55
2023-01-21T12:25:55.039Z,8.65
2023-01-21T12:29:11.165Z,8.40
2023-01-21T12:31:48.783Z,7.30
2023-01-21T12:34:36.965Z,7.85
2023-01-21T12:37:16.270Z,7.22
2023-01-21T12:39:47.413Z,7.18
2023-01-21T12:42:23.049Z,6.93
2023-01-21T12:44:59.171Z,8.82
2023-01-21T12:47:46.189Z,7.15
2023-01-21T12:50:36.246Z,7.78
2023-01-21T12:53:45.690Z,7.80
2023-01-21T12:56:28.187Z,7.00
2023-01-21T12:59:10.755Z,7.93
2023-01-21T13:01:49.170Z,7.63
2023-01-21T13:04:47.045Z,6.78
2023-01-21T13:07:51.100Z,6.72
2023-01-21T13:10:39.981Z,6.32
2023-01-21T13:13:26.576Z,7.03
2023-01-21T13:16:03.510Z,6.60
2023-01-21T13:18:35.950Z,7.30
2023-01-21T13:21:36.527Z,7.93
2023-01-21T13:24:10.857Z,7.45
2023-01-21T13:26:47.427Z,8.13
2023-01-21T13:29:44.257Z,7.68
2023-01-21T13:32:13.963Z,7.07
2023-01-21T13:34:44.170Z,7.15
2023-01-21T13:37:54.356Z,7.38
2023-01-21T13:41:08.219Z,6.27
2023-01-21T13:44:11.223Z,5.68
2023-01-21T13:47:21.719Z,6.43
2023-01-21T13:50:18.991Z,6.38
2023-01-21T13:53:04.202Z,6.35
2023-01-21T13:55:52.191Z,6.63
2023-01-21T13:58:37.970Z,7.07
2023-01-21T14:01:39.574Z,6.32
2023-01-21T14:04:18.991Z,5.97
2023-01-21T14:06:57.707Z,7.00
2023-01-21T14:09:52.208Z,8.18
2023-01-21T14:13:06.671Z,6.32
2023-01-21T14:16:08.502Z,6.03
2023-01-21T14:18:50.324Z,6.97
2023-01-21T14:21:54.689Z,6.22
2023-01-21T14:24:46.557Z,7.00
2023-01-21T14:27:34.282Z,6.40
2023-01-21T14:30:20.334Z,7.53
2023-01-21T14:33:06.753Z,7.00
2023-01-21T14:35:58.518Z,7.38
2023-01-21T14:38:53.995Z,6.05
2023-01-21T14:41:21.204Z,6.43
2023-01-21T14:43:51.924Z,6.35
2023-01-21T14:49:08.185Z,5.45
2023-01-21T14:51:49.602Z,6.20
2023-01-21T14:54:24.649Z,6.47
2023-01-21T14:57:13.805Z,7.93
2023-01-21T14:59:46.513Z,6.78
2023-01-21T15:02:34.203Z,5.70
2023-01-21T15:05:25.692Z,6.63
2023-01-21T15:08:21.973Z,6.43
2023-01-21T15:11:01.079Z,6.20
2023-01-21T15:13:34.841Z,6.50
2023-01-21T15:16:23.513Z,6.43
2023-01-21T15:19:08.147Z,5.68
2023-01-21T15:21:41.029Z,6.97
2023-01-21T15:24:40.626Z,6.65
2023-01-21T15:27:20.487Z,5.47
2023-01-21T15:30:26.613Z,6.93
2023-01-21T15:32:54.145Z,7.22
2023-01-21T15:35:33.414Z,8.68
2023-01-21T15:38:19.739Z,7.07
2023-01-21T15:40:52.170Z,7.82
2023-01-21T15:43:55.087Z,5.93
2023-01-21T15:46:45.525Z,6.13
2023-01-21T15:49:37.943Z,5.25
2023-01-21T15:52:29.161Z,5.15
2023-01-21T15:55:55.603Z,5.38
2023-01-21T15:58:44.680Z,6.32
2023-01-21T16:01:31.290Z,6.13
2023-01-21T16:04:20.042Z,4.65
2023-01-21T16:07:24.823Z,5.20
2023-01-21T16:10:12.067Z,3.88
2023-01-21T16:12:57.994Z,4.60
2023-01-21T16:15:43.383Z,5.03
2023-01-21T16:18:34.755Z,5.28
2023-01-21T16:21:04.297Z,5.40
2023-01-21T16:23:39.288Z,5.15
2023-01-21T16:26:06.081Z,6.40
2023-01-21T16:28:51.428Z,5.53
2023-01-21T16:31:18.414Z,5.43
2023-01-21T16:33:45.258Z,4.70
2023-01-21T16:36:15.980Z,5.30
2023-01-21T16:41:11.459Z,5.25
2023-01-21T16:44:16.410Z,5.03
2023-01-21T16:46:46.104Z,4.53
2023-01-21T16:49:16.810Z,5.00
2023-01-21T16:54:28.631Z,4.53
2023-01-21T16:57:16.361Z,5.22
2023-01-21T16:59:48.223Z,5.93
2023-01-21T17:02:31.552Z,6.72
2023-01-21T17:05:06.984Z,5.82
2023-01-21T17:07:42.021Z,6.10
2023-01-21T17:10:39.989Z,4.97
2023-01-21T17:13:16.067Z,5.97
2023-01-21T17:16:00.694Z,5.88
2023-01-21T17:18:29.272Z,5.13
2023-01-21T17:21:10.291Z,5.38
2023-01-21T17:24:00.194Z,6.32
2023-01-21T17:26:31.783Z,7.72
2023-01-21T17:29:09.470Z,12.32
2023-01-21T17:31:41.188Z,9.52
2023-01-21T17:34:10.991Z,12.40
2023-01-21T17:36:41.491Z,15.75
2023-01-21T17:39:10.963Z,10.35
2023-01-21T17:41:46.096Z,8.95
2023-01-21T17:44:22.092Z,8.98
2023-01-21T17:46:53.238Z,7.78
2023-01-21T17:49:23.883Z,15.45
2023-01-21T17:54:24.773Z,10.25
2023-01-21T17:56:57.399Z,10.10
2023-01-21T17:59:41.463Z,12.32
2023-01-21T18:02:14.943Z,11.60
2023-01-21T18:04:43.150Z,12.57
2023-01-21T18:07:25.115Z,13.43
2023-01-21T18:09:54.272Z,8.38
2023-01-21T18:12:22.081Z,10.32
2023-01-21T18:14:48.972Z,8.77
2023-01-21T18:17:20.127Z,14.77
2023-01-21T18:19:47.093Z,10.38
2023-01-21T18:22:31.886Z,10.60
2023-01-21T18:25:00.410Z,9.88
2023-01-21T18:27:27.288Z,10.80
2023-01-21T18:29:54.667Z,7.90
2023-01-21T18:32:21.837Z,6.55
2023-01-21T18:34:48.630Z,7.07
2023-01-21T18:37:20.486Z,10.25
2023-01-21T18:39:47.542Z,8.57
2023-01-21T18:42:16.863Z,9.25
2023-01-21T18:44:44.916Z,10.50
2023-01-21T18:47:14.445Z,11.48
2023-01-21T18:49:41.459Z,12.05
2023-01-21T18:52:14.171Z,10.27
2023-01-21T18:54:41.400Z,11.98
2023-01-21T18:57:18.976Z,9.50
2023-01-21T18:59:45.828Z,12.60
2023-01-21T19:02:19.637Z,12.75
2023-01-21T19:04:47.597Z,9.98
2023-01-21T19:07:19.944Z,8.73
2023-01-21T19:09:49.055Z,7.43
2023-01-21T19:12:20.803Z,8.75
2023-01-21T19:14:48.765Z,14.07
2023-01-21T19:17:26.012Z,12.68
2023-01-21T19:19:54.207Z,10.68
2023-01-21T19:22:22.022Z,9.82
2023-01-21T19:24:49.291Z,11.07
2023-01-21T19:27:28.902Z,12.30
2023-01-21T19:29:56.093Z,11.27
2023-01-21T19:32:23.072Z,11.75
2023-01-21T19:34:49.949Z,12.35
2023-01-21T19:37:22.474Z,14.85
2023-01-21T19:39:49.343Z,14.48
2023-01-21T19:42:17.862Z,12.05
2023-01-21T19:44:44.732Z,19.88
2023-01-21T19:47:28.851Z,16.35
2023-01-21T19:49:55.782Z,16.75
2023-01-21T19:52:22.648Z,16.52
2023-01-21T19:54:49.590Z,11.40
2023-01-21T19:57:17.421Z,11.25
2023-01-21T19:59:45.875Z,36.55
2023-01-21T20:02:14.501Z,24.63
2023-01-21T20:04:41.382Z,16.40
2023-01-21T20:07:14.814Z,11.50
2023-01-21T20:09:41.706Z,10.35
2023-01-21T20:12:12.838Z,10.55
2023-01-21T20:14:39.581Z,11.23
2023-01-21T20:17:06.591Z,9.38
2023-01-21T20:19:33.496Z,10.63
2023-01-21T20:22:02.498Z,10.32
2023-01-21T20:24:33.618Z,9.27
2023-01-21T20:27:04.272Z,8.65
2023-01-21T20:29:32.530Z,7.55
2023-01-21T20:31:59.437Z,7.88
2023-01-21T20:34:28.251Z,8.88
2023-01-21T20:36:56.018Z,8.30
2023-01-21T20:39:22.996Z,8.10
2023-01-21T20:41:49.818Z,7.97
2023-01-21T20:44:16.704Z,6.95
2023-01-21T20:46:45.491Z,7.38
2023-01-21T20:49:12.461Z,7.53
2023-01-21T20:51:39.372Z,8.13
2023-01-21T20:54:06.261Z,7.70
2023-01-21T20:56:33.403Z,8.85
2023-01-21T20:59:00.398Z,8.05
2023-01-21T21:01:28.817Z,8.32
2023-01-21T21:03:55.729Z,8.63
2023-01-21T21:06:28.844Z,7.97
2023-01-21T21:08:55.855Z,7.78
2023-01-21T21:11:23.391Z,7.10
2023-01-21T21:13:52.324Z,9.18
2023-01-21T21:16:31.856Z,7.43
2023-01-21T21:19:00.503Z,6.70
2023-01-21T21:21:27.803Z,8.38
2023-01-21T21:23:54.594Z,8.05
2023-01-21T21:26:29.275Z,8.32
2023-01-21T21:28:57.595Z,7.88
2023-01-21T21:31:26.586Z,8.90
2023-01-21T21:33:53.759Z,7.88
2023-01-21T21:36:23.899Z,7.30
2023-01-21T21:38:55.398Z,7.88
2023-01-21T21:41:43.589Z,8.30
2023-01-21T21:44:12.637Z,7.82
2023-01-21T21:46:58.817Z,8.00
2023-01-21T21:49:26.743Z,7.55
2023-01-21T21:51:53.649Z,7.80
2023-01-21T21:54:21.128Z,8.18
2023-01-21T21:56:48.278Z,7.75
2023-01-21T21:59:15.841Z,7.32
2023-01-21T22:01:44.203Z,8.50
2023-01-21T22:04:11.711Z,8.25
2023-01-21T22:06:38.866Z,7.70
2023-01-21T22:09:06.711Z,7.53
2023-01-21T22:11:33.678Z,7.95
2023-01-21T22:14:03.902Z,7.38
2023-01-21T22:16:31.754Z,6.38
2023-01-21T22:19:00.498Z,7.10
2023-01-21T22:21:33.487Z,7.45
2023-01-21T22:24:08.294Z,7.93
2023-01-21T22:26:35.946Z,7.10
2023-01-21T22:29:04.506Z,8.23
2023-01-21T22:31:33.503Z,8.73
2023-01-21T22:34:01.265Z,8.38
2023-01-21T22:36:30.645Z,8.88
2023-01-21T22:38:58.729Z,7.53
2023-01-21T22:41:27.008Z,9.00
2023-01-21T22:43:54.570Z,7.38
2023-01-21T22:46:31.743Z,8.50
2023-01-21T22:48:58.858Z,8.57
2023-01-21T22:51:26.859Z,8.98
2023-01-21T22:53:54.397Z,8.20
2023-01-21T22:56:39.834Z,8.43
2023-01-21T22:59:11.184Z,8.83
2023-01-21T23:01:38.165Z,8.18
2023-01-21T23:04:05.263Z,7.95
2023-01-21T23:06:32.212Z,8.52
2023-01-21T23:08:59.050Z,8.88
2023-01-21T23:11:25.907Z,8.30
2023-01-21T23:13:55.205Z,7.93
2023-01-21T23:16:22.755Z,8.85
2023-01-21T23:18:50.042Z,8.10
2023-01-21T23:21:21.045Z,7.60
2023-01-21T23:23:48.566Z,7.88
2023-01-21T23:26:18.281Z,8.77
2023-01-21T23:28:45.223Z,8.75
2023-01-21T23:31:17.627Z,8.23
2023-01-21T23:33:49.379Z,8.85
2023-01-21T23:36:16.267Z,7.78
2023-01-21T23:38:43.565Z,8.80
2023-01-21T23:41:14.420Z,7.85
2023-01-21T23:43:41.418Z,8.20
2023-01-21T23:46:16.379Z,9.35
2023-01-21T23:48:43.615Z,8.57
2023-01-21T23:51:13.647Z,8.05
2023-01-21T23:53:40.679Z,9.02
2023-01-21T23:56:24.362Z,7.78
2023-01-21T23:58:52.145Z,8.73
